Terminal Aerodrome Forecast
Issued by NWS Corpus Christi, TX

Home | Current Version | Previous Version | Text Only | Print | Product List | Glossary On
Versions: 1 2 3 4 5 6 7 8 9 10 11 12 13 14 15 16
000
FTUS44 KCRP 221100
TAFVCT
TAF
KVCT 221120Z 2212/2312 VRB03KT 6SM BR SKC
      TEMPO 2212/2214 3SM BR SCT005
     FM221400 03006KT P6SM SKC
     FM222000 07009KT P6SM FEW050
     FM230200 09005KT P6SM SCT050=

USA.gov is the U.S. government's official web portal to all federal, state and local government web resources and services.